• Join FlightAware (Why Join?)
  • Login
  • US Flag 
05:57AM EDT


 

Airport Tracker/Info


-or-


 

Live Flight TrackerFlight Track Log ✈ ASQ4421 ✈ 12-May-2013 ✈ KIAH - KOKC

Flight Track Log - Related Links

Times and Time Zones

All times are in EDT time to prevent confusion due to time zone crossing. See the ASQ4421 flight status page for this flight to view local times or setup timezone preferences in your user account.

Time Position Orientation Groundspeed Altitude Reporting Facility
EDT Latitude Longitude Course Direction KTS MPH feet Rate Location/Type
08:35AM 29.9617 -95.3436 337° Northwest 152 175 900  Level Houston Center
08:37AM 29.9642 -95.3939 273° West 247 284 4,200 2,820 Climbing Houston Center
08:38AM 30.0269 -95.4053 351° North 248 285 7,000 3,180 Climbing Houston Center
08:39AM 30.3385 -95.5428 332° Northwest  Level FlightAware Approximate
08:39AM 30.0994 -95.4189 351° North 261 300 10,400  Level Houston Center
08:40AM 30.4281 -95.5934 334° Northwest  Level FlightAware Approximate
08:40AM 30.1792 -95.4642 334° Northwest 314 361 11,200  Level Houston Center
08:41AM 30.5184 -95.6425 337° Northwest  Level FlightAware Approximate
08:41AM 30.2731 -95.5133 336° Northwest 365 420 12,900  Level Houston Center
08:42AM 30.3683 -95.5631 336° Northwest 375 432 14,600 1,620 Climbing Houston Center
08:43AM 30.4669 -95.6161 335° Northwest 387 445 16,300 1,620 Climbing Houston Center
08:44AM 30.5669 -95.6675 336° Northwest 391 450 17,900 1,620 Climbing Houston Center
08:45AM 30.6664 -95.7217 335° Northwest 394 453 19,600 1,920 Climbing Houston Center
08:46AM 30.7767 -95.7808 335° Northwest 395 455 21,900 2,280 Climbing Houston Center
08:47AM 30.8733 -95.8322 335° Northwest 383 441 24,300 2,100 Climbing Houston Center
08:48AM 30.9664 -95.8828 335° Northwest 372 428 26,200 1,860 Climbing Houston Center
08:49AM 31.0594 -95.9317 336° Northwest 366 421 28,200 1,680 Climbing Houston Center
08:50AM 31.1533 -95.9797 336° Northwest 366 421 29,700 1,380 Climbing Houston Center
08:50AM 31.1928 -95.9928 344° North 376 433 30,000 180 Climbing Fort Worth Center
08:51AM 31.3039 -96.0372 341° North 394 453 30,000  Level Fort Worth Center
08:52AM 31.4172 -96.0817 341° North 421 484 30,000  Level Fort Worth Center
08:53AM 31.5408 -96.1286 342° North 446 513 30,000  Level Fort Worth Center
08:54AM 31.6539 -96.1736 341° North 440 506 30,000  Level Fort Worth Center
08:55AM 31.7733 -96.2136 344° North 435 501 30,000  Level Fort Worth Center
08:56AM 31.8906 -96.2536 344° North 440 506 30,000  Level Fort Worth Center
08:57AM 32.0100 -96.2936 344° North 440 506 30,000  Level Fort Worth Center
08:58AM 32.1189 -96.3292 345° North 440 506 30,000  Level Fort Worth Center
08:59AM 32.2467 -96.3744 343° North 440 506 30,000  Level Fort Worth Center
09:00AM 32.3575 -96.4100 345° North 440 506 30,000  Level Fort Worth Center
09:01AM 32.4853 -96.4553 343° North 440 506 30,000  Level Fort Worth Center
09:02AM 32.5942 -96.4911 345° North 440 506 30,000  Level Fort Worth Center
09:03AM 32.7239 -96.5342 344° North 440 506 30,000  Level Fort Worth Center
09:04AM 32.8411 -96.5753 344° North 440 506 30,000  Level Fort Worth Center
09:05AM 32.9497 -96.6089 345° North 439 505 30,000  Level Fort Worth Center
09:06AM 33.0836 -96.6597 342° North 439 505 30,000  Level Fort Worth Center
09:07AM 33.1903 -96.6936 345° North 446 513 30,000  Level Fort Worth Center
09:08AM 33.3200 -96.7372 344° North 436 502 30,000  Level Fort Worth Center
09:09AM 33.4267 -96.7764 343° North 442 509 30,000  Level Fort Worth Center
09:10AM 33.5564 -96.8203 344° North 435 501 30,000  Level Fort Worth Center
09:11AM 33.6628 -96.8544 345° North 435 501 30,000  Level Fort Worth Center
09:12AM 33.7925 -96.9011 343° North 440 506 30,000  Level Fort Worth Center
09:13AM 33.9053 -96.9406 344° North 426 490 30,000  Level Fort Worth Center
09:14AM 34.0225 -96.9850 343° North 426 490 30,000 -300 Level Fort Worth Center
09:15AM 34.1394 -97.0269 343° North 426 490 29,500 -1,500 Descending Fort Worth Center
09:16AM 34.2606 -97.0692 344° North 438 504 27,100 -2,400 Descending Fort Worth Center
09:17AM 34.3836 -97.1089 345° North 443 510 24,800 -2,160 Descending Fort Worth Center
09:18AM 34.4986 -97.1514 343° North 443 510 22,800 -2,040 Descending Fort Worth Center
09:19AM 34.6114 -97.1914 344° North 433 498 20,800 -1,980 Descending Fort Worth Center
09:20AM 34.7178 -97.2292 344° North 393 452 18,900 -1,920 Descending Fort Worth Center
09:20AM 34.7178 -97.2292 344° North 415 478 18,900 -2,280 Level Fort Worth Center
09:21AM 34.8181 -97.2642 344° North 377 434 16,600 -2,760 Descending Fort Worth Center
09:22AM 34.9119 -97.3097 338° Northwest 370 426 13,400 -3,060 Descending Fort Worth Center
09:23AM 34.9892 -97.3628 331° Northwest 338 389 10,600 -1,980 Descending Fort Worth Center
09:24AM 35.0536 -97.4136 327° Northwest 307 353 9,500 -1,800 Descending Fort Worth Center
09:25AM 35.1100 -97.4542 330° Northwest 263 303 7,100 -2,400 Descending Fort Worth Center
09:26AM 35.1642 -97.4947 329° Northwest 240 276 4,800 -1,860 Descending Fort Worth Center
09:27AM 35.2225 -97.5381 329° Northwest 240 276 3,400 -900 Descending Fort Worth Center
09:28AM 35.2769 -97.5764 330° Northwest 240 276 3,000 -420 Descending Fort Worth Center
09:29AM 35.3186 -97.5942 341° North 206 237 2,600 -600 Descending Fort Worth Center
09:30AM 35.3561 -97.5917 North 152 175 1,800 -840 Descending Fort Worth Center